Time;durP1;ratioP1;P1;durP2;ratioP2;P2;SDS_P1;SDS_P2;PMS_P1;PMS_P2;Temp;Humidity;BMP_temperature;BMP_pressure;BME280_temperature;BME280_humidity;BME280_pressure;Samples;Min_cycle;Max_cycle;Signal;HPM_P1;HPM_P2
2022/12/21 00:02:06;;;;;;;7.70;7.00;;;;;;;21.16;29.44;95983.97;6210704;28;103137;-63
2022/12/21 00:05:10;;;;;;;7.73;7.10;;;;;;;21.19;29.30;95984.25;6200313;28;103169;-63
2022/12/21 00:08:13;;;;;;;7.53;6.93;;;;;;;21.20;29.32;95987.69;6209809;28;104142;-63
2022/12/21 00:11:16;;;;;;;6.73;6.20;;;;;;;21.20;29.25;95987.69;6210716;28;103114;-63
2022/12/21 00:14:19;;;;;;;7.90;7.20;;;;;;;21.18;29.22;95984.53;6231366;28;103095;-63
2022/12/21 00:17:24;;;;;;;6.73;6.23;;;;;;;21.18;29.02;95987.19;6199115;28;103264;-63
2022/12/21 00:20:27;;;;;;;6.87;6.27;;;;;;;21.07;29.22;95980.31;6210710;28;103168;-63
2022/12/21 00:23:31;;;;;;;6.60;6.00;;;;;;;21.17;29.52;95980.25;6208927;28;103177;-63
2022/12/21 00:26:36;;;;;;;7.20;6.60;;;;;;;21.16;29.48;95978.66;6212861;28;103223;-64
2022/12/21 00:29:39;;;;;;;7.30;6.70;;;;;;;21.16;29.18;95979.44;6203351;28;103477;-63
2022/12/21 00:32:44;;;;;;;7.80;7.13;;;;;;;21.16;29.01;95976.00;6210843;28;103337;-63
2022/12/21 00:35:48;;;;;;;7.90;7.20;;;;;;;21.16;29.38;95976.00;6217099;28;103357;-63
2022/12/21 00:38:52;;;;;;;8.03;7.33;;;;;;;21.16;29.14;95981.31;6203370;28;103168;-63
2022/12/21 00:41:55;;;;;;;7.77;7.07;;;;;;;21.16;29.26;95983.97;6209477;28;104456;-63
2022/12/21 00:44:58;;;;;;;8.17;7.47;;;;;;;21.16;29.41;95976.00;6219048;28;103637;-63
2022/12/21 00:48:02;;;;;;;8.40;7.70;;;;;;;21.10;29.35;95966.47;6234273;28;103192;-63
2022/12/21 00:51:07;;;;;;;7.90;7.30;;;;;;;21.16;29.66;95973.31;6199900;28;103219;-63
2022/12/21 00:54:10;;;;;;;8.07;7.47;;;;;;;21.14;29.09;95967.50;6210985;28;104932;-62
2022/12/21 00:57:13;;;;;;;8.30;7.60;;;;;;;21.15;29.28;95961.09;6210422;28;104084;-62
2022/12/21 01:00:16;;;;;;;8.13;7.43;;;;;;;21.14;29.26;95954.97;6210143;28;104125;-62
2022/12/21 01:03:21;;;;;;;9.47;8.13;;;;;;;21.14;29.58;95941.66;6201118;28;104274;-63
2022/12/21 01:06:27;;;;;;;8.83;8.13;;;;;;;21.15;29.39;95947.78;6211383;28;104066;-62
2022/12/21 01:09:30;;;;;;;9.00;8.30;;;;;;;21.15;29.29;95948.56;6208791;28;103808;-63
2022/12/21 01:12:33;;;;;;;9.23;8.43;;;;;;;21.15;29.00;95935.28;6214586;28;103634;-63
2022/12/21 01:15:40;;;;;;;9.47;8.67;;;;;;;21.16;29.04;95944.06;6209252;28;103276;-63
2022/12/21 01:18:45;;;;;;;8.73;8.03;;;;;;;21.13;28.80;95940.06;6209613;28;102964;-63
2022/12/21 01:21:48;;;;;;;9.53;8.70;;;;;;;21.14;28.62;95935.56;6213641;28;103185;-63
2022/12/21 01:24:51;;;;;;;9.97;9.17;;;;;;;21.14;29.28;95936.34;6223636;27;103209;-63
2022/12/21 01:27:54;;;;;;;9.10;8.30;;;;;;;21.12;29.03;95938.50;6221942;28;103384;-63
2022/12/21 01:31:01;;;;;;;8.33;7.63;;;;;;;21.14;29.56;95941.66;6208811;28;103205;-63
2022/12/21 01:34:06;;;;;;;8.50;7.80;;;;;;;21.13;28.94;95933.97;6213640;28;104336;-63
2022/12/21 01:37:09;;;;;;;8.60;7.90;;;;;;;21.09;29.18;95938.25;6202708;28;103556;-63
2022/12/21 01:40:13;;;;;;;8.80;8.10;;;;;;;21.03;29.26;95926.03;6213314;28;103043;-63
2022/12/21 01:43:18;;;;;;;8.87;8.07;;;;;;;21.03;28.95;95923.38;6212326;28;103133;-63
2022/12/21 01:46:27;;;;;;;8.20;7.50;;;;;;;21.13;29.19;95928.63;6208077;28;102863;-62
2022/12/21 01:49:33;;;;;;;9.60;8.63;;;;;;;21.11;29.21;95928.13;6208431;28;104081;-62
2022/12/21 01:52:36;;;;;;;8.83;7.93;;;;;;;21.11;29.23;95920.16;6213233;28;104552;-63
2022/12/21 01:55:39;;;;;;;9.10;8.30;;;;;;;21.11;28.94;95917.47;6213370;28;102896;-63
2022/12/21 01:58:42;;;;;;;8.40;7.70;;;;;;;21.09;28.96;95916.97;6213669;28;103923;-63
2022/12/21 02:01:46;;;;;;;9.00;8.20;;;;;;;21.10;29.16;95919.34;6233503;28;103147;-63
2022/12/21 02:04:53;;;;;;;8.47;7.77;;;;;;;21.08;29.04;95904.72;6213370;28;103134;-63
2022/12/21 02:07:59;;;;;;;8.83;8.13;;;;;;;21.06;29.06;95902.34;6212379;28;103274;-63
2022/12/21 02:11:03;;;;;;;8.90;8.10;;;;;;;21.09;29.03;95904.47;6202712;28;103358;-63
2022/12/21 02:14:11;;;;;;;8.17;7.47;;;;;;;21.11;29.25;95901.50;6211899;28;103352;-63
2022/12/21 02:17:24;;;;;;;8.67;7.97;;;;;;;21.10;29.15;95899.94;6213295;28;104002;-63
2022/12/21 02:20:55;;;;;;;9.00;8.20;;;;;;;21.12;29.24;95905.75;6224451;28;104211;-64
2022/12/21 02:24:31;;;;;;;8.90;8.20;;;;;;;21.12;29.30;95900.44;6209099;28;102876;-63
2022/12/21 02:28:12;;;;;;;8.50;7.87;;;;;;;21.10;28.53;95898.06;6212480;28;103057;-63
2022/12/21 02:31:26;;;;;;;8.60;7.90;;;;;;;21.11;28.79;95888.22;6213413;28;103601;-63
2022/12/21 02:34:36;;;;;;;8.53;7.83;;;;;;;21.11;28.89;95891.66;6201842;28;103020;-63
2022/12/21 02:37:43;;;;;;;9.40;8.50;;;;;;;21.04;28.98;95880.53;6212265;28;103092;-63
2022/12/21 02:40:56;;;;;;;9.40;8.53;;;;;;;21.11;28.53;95894.31;6213980;28;103903;-63
2022/12/21 02:44:14;;;;;;;8.60;7.90;;;;;;;21.10;28.90;95890.06;6223721;28;103079;-63
2022/12/21 02:47:25;;;;;;;8.93;8.10;;;;;;;21.12;29.08;95890.59;6211285;28;102773;-63
2022/12/21 02:50:34;;;;;;;9.30;8.50;;;;;;;21.10;29.12;95894.59;6211768;28;103374;-63
2022/12/21 02:53:39;;;;;;;8.30;7.60;;;;;;;21.10;29.33;95894.59;6238157;28;104210;-65
2022/12/21 02:56:42;;;;;;;8.97;8.23;;;;;;;21.10;28.68;95887.41;6201989;28;104140;-65
2022/12/21 02:59:49;;;;;;;8.77;8.07;;;;;;;21.09;29.14;95885.03;6212272;28;102902;-64
2022/12/21 03:06:56;;;;;;;8.27;7.60;;;;;;;21.08;28.73;95878.91;6205362;28;103027;-65
2022/12/21 03:10:09;;;;;;;8.47;7.73;;;;;;;21.01;28.52;95864.31;6211377;28;103255;-65
2022/12/21 03:13:23;;;;;;;8.60;7.90;;;;;;;21.08;28.70;95872.81;6197541;28;104288;-65
2022/12/21 03:16:34;;;;;;;8.57;7.87;;;;;;;21.08;28.83;95875.47;6212602;28;102982;-65
2022/12/21 03:19:48;;;;;;;8.30;7.60;;;;;;;21.02;28.95;95864.03;6223830;28;103705;-65
2022/12/21 03:22:57;;;;;;;8.00;7.30;;;;;;;21.02;28.83;95860.59;6229168;28;103067;-65
2022/12/21 03:26:07;;;;;;;7.40;6.80;;;;;;;21.07;29.07;95865.91;6211385;28;103221;-65
2022/12/21 03:29:15;;;;;;;8.00;7.40;;;;;;;21.07;28.78;95865.91;6206745;28;104387;-65
2022/12/21 03:32:25;;;;;;;8.10;7.40;;;;;;;21.06;28.71;95854.44;6208801;28;106462;-65
2022/12/21 03:35:37;;;;;;;8.40;7.70;;;;;;;21.05;29.01;95850.22;6235537;28;103255;-65
2022/12/21 03:38:45;;;;;;;7.83;7.23;;;;;;;20.98;29.02;95832.94;6236592;28;105582;-65
2022/12/21 03:41:53;;;;;;;8.67;7.87;;;;;;;21.06;28.81;95843.00;6214228;27;104591;-65
2022/12/21 03:45:00;;;;;;;8.47;7.77;;;;;;;21.04;28.65;95826.50;6231952;28;104223;-65
2022/12/21 03:48:09;;;;;;;8.40;7.70;;;;;;;21.06;28.88;95835.03;6235602;28;103211;-65
2022/12/21 03:51:21;;;;;;;8.40;7.70;;;;;;;21.06;28.55;95827.06;6228443;28;103302;-64
2022/12/21 03:54:33;;;;;;;8.30;7.60;;;;;;;21.05;28.28;95817.47;6213982;28;104373;-65
2022/12/21 03:57:41;;;;;;;8.37;7.67;;;;;;;21.07;28.66;95821.44;6234441;28;104085;-66
2022/12/21 04:00:49;;;;;;;8.40;7.70;;;;;;;21.07;28.98;95828.63;6229783;28;103023;-65
2022/12/21 04:03:59;;;;;;;7.80;7.10;;;;;;;21.06;28.89;95819.84;6204579;28;103133;-65
2022/12/21 04:07:07;;;;;;;9.60;8.70;;;;;;;21.05;28.58;95814.81;6235585;28;104181;-64
2022/12/21 04:10:13;;;;;;;8.50;7.80;;;;;;;20.99;28.64;95816.69;6219082;28;103178;-65
2022/12/21 04:13:16;;;;;;;9.13;8.33;;;;;;;21.03;28.76;95808.97;6222400;28;103361;-65
2022/12/21 04:16:19;;;;;;;9.87;9.00;;;;;;;21.03;28.63;95808.97;6223858;28;103427;-65
2022/12/21 04:29:33;;;;;;;9.33;8.53;;;;;;;21.09;28.44;95806.00;6193271;28;103097;-67
2022/12/21 04:32:35;;;;;;;9.30;8.60;;;;;;;21.08;28.73;95811.59;6218328;28;104562;-67
2022/12/21 04:37:30;;;;;;;9.33;8.53;;;;;;;21.08;28.41;95808.94;6220580;28;104438;-67
2022/12/21 04:39:03;;;;;;;9.47;8.67;;;;;;;21.06;28.89;95795.13;6199230;28;103394;-67
2022/12/21 04:42:06;;;;;;;9.87;9.07;;;;;;;21.05;28.67;95799.66;6217157;28;103064;-67
2022/12/21 04:45:09;;;;;;;9.63;8.83;;;;;;;21.08;28.25;95800.94;6228336;28;102896;-64
2022/12/21 04:48:12;;;;;;;10.57;9.67;;;;;;;21.09;28.36;95794.56;6222033;28;103060;-64
2022/12/21 04:51:18;;;;;;;11.70;10.70;;;;;;;21.07;28.82;95788.72;6215208;27;103596;-64
2022/12/21 04:54:23;;;;;;;11.40;10.50;;;;;;;21.04;28.72;95794.56;6215531;28;103111;-67
2022/12/21 04:57:26;;;;;;;11.10;10.20;;;;;;;21.02;28.74;95794.06;6212957;28;103411;-66
2022/12/21 05:00:29;;;;;;;11.33;10.43;;;;;;;21.05;29.14;95789.00;6214431;28;103295;-66
2022/12/21 05:03:32;;;;;;;13.00;11.80;;;;;;;21.03;29.26;95795.66;6201058;28;104243;-67
2022/12/21 05:06:35;;;;;;;12.87;11.70;;;;;;;20.99;29.04;95789.28;6205747;28;103205;-67
2022/12/21 05:09:40;;;;;;;13.87;12.67;;;;;;;21.05;29.38;95786.34;6211585;28;103213;-67
2022/12/21 05:12:43;;;;;;;14.10;12.60;;;;;;;21.06;28.53;95781.81;6199040;27;103537;-65
2022/12/21 05:15:46;;;;;;;13.83;12.47;;;;;;;21.10;28.72;95796.94;6215053;28;103513;-65
2022/12/21 05:18:52;;;;;;;13.63;12.40;;;;;;;21.10;29.07;95780.97;6237701;28;102687;-65
2022/12/21 05:21:56;;;;;;;13.37;12.07;;;;;;;21.16;29.45;95793.13;6231439;28;103229;-66
2022/12/21 05:25:00;;;;;;;14.23;12.87;;;;;;;21.10;29.18;95785.50;6201941;28;103317;-68
2022/12/21 05:28:03;;;;;;;12.87;11.80;;;;;;;21.03;29.29;95787.66;6213264;28;103084;-67
2022/12/21 05:31:07;;;;;;;13.83;12.53;;;;;;;21.01;29.12;95784.50;6212981;28;104374;-67
2022/12/21 05:34:10;;;;;;;13.90;12.60;;;;;;;20.98;29.22;95788.50;6210404;28;103098;-67
2022/12/21 05:37:13;;;;;;;14.67;13.37;;;;;;;20.98;29.66;95787.69;6200711;28;103541;-66
2022/12/21 05:40:18;;;;;;;14.60;13.37;;;;;;;20.84;29.34;95777.72;6210891;28;103618;-65
2022/12/21 05:43:24;;;;;;;14.20;12.70;;;;;;;20.95;29.10;95793.59;6210587;28;103559;-66
2022/12/21 05:46:27;;;;;;;14.67;13.33;;;;;;;20.94;29.19;95790.13;6206477;28;103363;-66
2022/12/21 05:49:30;;;;;;;13.67;12.37;;;;;;;20.94;29.02;95798.09;6207603;28;103220;-66
2022/12/21 05:52:33;;;;;;;12.87;11.87;;;;;;;20.93;29.17;95792.00;6212895;28;103075;-68
2022/12/21 05:55:37;;;;;;;14.70;13.40;;;;;;;20.91;29.27;95794.16;6212509;28;104267;-68
2022/12/21 05:58:41;;;;;;;14.33;13.00;;;;;;;20.92;29.06;95798.38;6203909;28;105258;-68
2022/12/21 06:01:44;;;;;;;14.67;13.40;;;;;;;20.93;28.90;95796.53;6213442;28;103778;-68
2022/12/21 06:04:47;;;;;;;13.67;12.47;;;;;;;20.88;29.05;95793.91;6212916;28;103379;-68
2022/12/21 06:07:50;;;;;;;13.43;12.33;;;;;;;20.89;28.91;95783.00;6213976;28;104127;-68
2022/12/21 06:11:06;;;;;;;13.50;12.30;;;;;;;20.92;28.76;95785.09;6201680;28;102971;-65
2022/12/21 06:14:09;;;;;;;15.33;14.03;;;;;;;20.91;28.97;95786.16;6213554;28;104370;-66
2022/12/21 06:17:12;;;;;;;17.40;15.90;;;;;;;20.85;29.09;95770.53;6213787;28;103427;-66
2022/12/21 06:20:16;;;;;;;16.97;15.47;;;;;;;20.93;29.03;95776.03;6207343;28;104106;-66
2022/12/21 06:23:19;;;;;;;17.40;15.77;;;;;;;20.98;28.92;95783.16;6207793;28;103424;-66
2022/12/21 06:26:23;;;;;;;18.20;16.60;;;;;;;20.99;29.20;95782.09;6212375;28;103213;-66
2022/12/21 06:29:26;;;;;;;17.93;16.17;;;;;;;21.00;29.24;95786.34;6213036;28;103443;-67
2022/12/21 06:32:29;;;;;;;19.47;17.57;;;;;;;21.00;28.78;95769.56;6202483;28;104094;-66
2022/12/21 06:35:33;;;;;;;20.37;18.37;;;;;;;21.00;29.04;95764.25;6213102;28;103840;-66
2022/12/21 06:38:36;;;;;;;20.40;18.50;;;;;;;20.98;29.52;95755.75;6212699;28;103377;-65
2022/12/21 06:41:40;;;;;;;21.73;19.43;;;;;;;21.10;28.88;95770.31;6212646;28;103319;-65
2022/12/21 06:44:43;;;;;;;21.87;19.73;;;;;;;21.10;29.08;95767.66;6202758;28;103302;-65
2022/12/21 06:47:47;;;;;;;23.20;20.93;;;;;;;21.16;28.65;95771.06;6212380;28;103167;-66
2022/12/21 06:50:57;;;;;;;21.90;19.80;;;;;;;21.17;28.56;95769.97;6212146;28;103195;-66
2022/12/21 06:54:00;;;;;;;21.90;19.90;;;;;;;21.17;28.99;95777.97;6212683;28;104112;-66
2022/12/21 06:57:04;;;;;;;20.90;18.90;;;;;;;21.23;28.71;95782.19;6200379;28;103341;-66
2022/12/21 07:00:10;;;;;;;22.50;20.30;;;;;;;21.40;28.02;95777.19;6212578;28;103118;-66
2022/12/21 07:03:13;;;;;;;22.43;20.33;;;;;;;21.69;27.83;95781.69;6211658;28;104275;-66
2022/12/21 07:06:16;;;;;;;21.27;19.30;;;;;;;22.05;27.27;95782.84;6203612;28;102810;-65
2022/12/21 07:09:19;;;;;;;20.37;18.27;;;;;;;22.24;27.22;95785.53;6210798;28;104230;-65
2022/12/21 07:12:24;;;;;;;21.07;19.17;;;;;;;22.31;27.17;95790.47;6211652;28;103218;-66
2022/12/21 07:15:27;;;;;;;20.83;18.03;;;;;;;22.44;26.76;95797.75;6212051;28;103610;-66
2022/12/21 07:18:30;;;;;;;19.90;18.10;;;;;;;22.41;26.96;95790.34;6200628;28;103182;-65
2022/12/21 07:21:33;;;;;;;19.37;17.47;;;;;;;22.42;26.77;95794.59;6212095;28;103347;-66
2022/12/21 07:24:36;;;;;;;19.10;17.40;;;;;;;22.20;27.19;95805.84;6211602;28;104108;-65
2022/12/21 07:27:40;;;;;;;19.07;17.43;;;;;;;22.19;27.41;95806.13;6211098;28;103262;-65
2022/12/21 07:30:47;;;;;;;19.80;18.10;;;;;;;22.16;26.72;95801.34;6201347;28;103125;-67
2022/12/21 07:33:51;;;;;;;19.20;17.50;;;;;;;22.14;27.50;95804.31;6211010;28;103201;-66
2022/12/21 07:36:54;;;;;;;17.03;15.60;;;;;;;22.01;27.32;95776.50;6212051;28;102997;-64
2022/12/21 07:39:57;;;;;;;18.63;17.00;;;;;;;22.05;27.51;95785.50;6206765;28;103047;-65
2022/12/21 07:43:06;;;;;;;17.53;15.93;;;;;;;22.08;27.19;95782.28;6207088;28;103695;-64
2022/12/21 07:46:10;;;;;;;18.57;16.97;;;;;;;22.10;27.46;95782.78;6212475;28;104292;-64
2022/12/21 07:49:13;;;;;;;17.50;15.70;;;;;;;22.12;27.62;95779.81;6212079;28;104360;-65
2022/12/21 07:52:16;;;;;;;18.37;16.50;;;;;;;22.15;27.00;95773.13;6202045;28;103103;-66
2022/12/21 07:55:19;;;;;;;17.10;15.60;;;;;;;22.15;27.40;95775.78;6211836;28;103977;-64
2022/12/21 07:58:24;;;;;;;15.50;14.20;;;;;;;22.18;27.21;95778.69;6211569;28;102980;-65
2022/12/21 08:01:28;;;;;;;16.07;14.60;;;;;;;22.17;27.47;95776.28;6211786;28;103283;-64
2022/12/21 08:04:31;;;;;;;16.20;14.80;;;;;;;22.08;27.22;95768.16;6200301;28;103778;-66
2022/12/21 08:07:34;;;;;;;15.70;14.20;;;;;;;22.03;27.14;95777.00;6211620;28;103183;-66
2022/12/21 08:10:37;;;;;;;15.87;14.37;;;;;;;21.99;27.18;95781.31;6211161;28;104099;-66
2022/12/21 08:13:43;;;;;;;16.70;15.20;;;;;;;21.98;27.81;95773.59;6208207;28;103584;-65
2022/12/21 08:16:46;;;;;;;15.70;14.30;;;;;;;22.01;27.31;95778.34;6205999;28;105037;-66
2022/12/21 08:19:49;;;;;;;14.57;13.33;;;;;;;21.99;27.49;95769.84;6211198;28;102883;-65
2022/12/21 08:22:52;;;;;;;14.30;13.10;;;;;;;21.97;27.74;95777.34;6211395;28;103066;-65
2022/12/21 08:25:59;;;;;;;14.90;13.50;;;;;;;21.93;27.42;95771.81;6201097;28;102973;-65
2022/12/21 08:29:05;;;;;;;15.47;14.17;;;;;;;21.92;27.81;95756.91;6210020;28;103420;-65
2022/12/21 08:32:08;;;;;;;14.10;12.87;;;;;;;21.89;27.69;95752.16;6210867;28;104655;-65
2022/12/21 08:35:11;;;;;;;14.30;13.03;;;;;;;21.97;27.30;95754.16;6211376;28;104989;-65
2022/12/21 08:38:14;;;;;;;14.70;13.30;;;;;;;21.98;27.58;95747.75;6199523;28;103778;-64
2022/12/21 08:41:37;;;;;;;14.57;13.27;;;;;;;21.88;27.65;95725.78;6211427;28;102767;-65
2022/12/21 08:44:42;;;;;;;13.53;12.43;;;;;;;22.01;27.34;95731.22;6214240;28;103576;-65
2022/12/21 08:47:45;;;;;;;13.60;12.50;;;;;;;21.94;27.75;95717.44;6213062;28;103172;-66
2022/12/21 08:50:51;;;;;;;13.80;12.60;;;;;;;22.06;27.69;95722.34;6208588;28;103267;-65
2022/12/21 08:53:54;;;;;;;13.97;12.67;;;;;;;22.05;27.39;95713.56;6215022;28;102998;-66
2022/12/21 08:56:57;;;;;;;14.50;13.20;;;;;;;22.07;27.68;95716.72;6215265;28;103051;-65
2022/12/21 09:00:03;;;;;;;14.13;12.77;;;;;;;22.03;27.31;95707.72;6203947;28;103284;-65
2022/12/21 09:03:07;;;;;;;12.63;11.53;;;;;;;22.07;27.50;95708.72;6214262;28;103350;-65
2022/12/21 09:06:10;;;;;;;11.83;10.83;;;;;;;22.07;27.31;95698.06;6214889;28;103352;-66
2022/12/21 09:09:13;;;;;;;12.73;11.63;;;;;;;22.09;27.28;95693.22;6215096;28;104427;-65
2022/12/21 09:12:16;;;;;;;12.97;11.80;;;;;;;22.06;27.11;95685.81;6204541;28;103405;-70
2022/12/21 09:15:24;;;;;;;12.63;11.53;;;;;;;22.11;27.75;95688.41;6214434;28;102942;-66
2022/12/21 09:18:27;;;;;;;12.70;11.60;;;;;;;22.10;27.72;95686.81;6215152;28;103493;-65
2022/12/21 09:21:30;;;;;;;12.93;11.80;;;;;;;22.12;27.68;95681.19;6214921;28;103296;-66
2022/12/21 09:24:33;;;;;;;12.30;11.30;;;;;;;22.12;27.70;95678.53;6204324;28;103361;-65
2022/12/21 09:27:36;;;;;;;12.70;11.50;;;;;;;22.12;27.74;95667.88;6214260;28;103331;-65
2022/12/21 09:30:41;;;;;;;12.30;11.10;;;;;;;22.10;27.64;95660.16;6213855;28;103627;-65
2022/12/21 09:33:44;;;;;;;12.30;11.20;;;;;;;22.11;27.32;95651.09;6209334;28;105664;-65
2022/12/21 09:36:47;;;;;;;12.20;11.17;;;;;;;22.13;27.28;95639.34;6210063;28;103536;-64
2022/12/21 09:40:13;;;;;;;11.30;10.27;;;;;;;22.14;27.25;95639.03;6214990;28;103284;-65
2022/12/21 09:43:23;;;;;;;11.70;10.67;;;;;;;22.10;27.51;95622.84;6214346;28;103149;-65
2022/12/21 09:46:35;;;;;;;11.50;10.50;;;;;;;21.96;27.10;95589.22;6204529;28;103767;-64
2022/12/21 09:49:43;;;;;;;11.80;10.73;;;;;;;22.23;27.26;95617.84;6214228;28;103050;-67
2022/12/21 09:52:52;;;;;;;11.20;10.23;;;;;;;22.18;27.22;95613.41;6213937;28;103009;-66
2022/12/21 09:55:58;;;;;;;11.10;10.20;;;;;;;22.27;27.76;95616.97;6211293;28;103324;-66
2022/12/21 09:59:09;;;;;;;10.67;9.80;;;;;;;22.28;27.61;95618.56;6208575;28;103239;-66
2022/12/21 10:02:27;;;;;;;11.30;10.30;;;;;;;22.31;27.41;95614.50;6212730;28;104053;-66
2022/12/21 10:05:45;;;;;;;10.67;9.77;;;;;;;22.34;27.48;95604.03;6213614;28;103175;-66
2022/12/21 10:09:01;;;;;;;10.40;9.47;;;;;;;22.32;27.45;95608.09;6203128;28;104040;-66
2022/12/21 10:12:16;;;;;;;10.77;9.77;;;;;;;22.35;27.78;95602.19;6213293;28;103475;-66
2022/12/21 10:15:30;;;;;;;11.17;10.17;;;;;;;22.32;27.76;95592.88;6213660;28;103026;-66
2022/12/21 10:18:43;;;;;;;10.77;9.90;;;;;;;22.33;27.88;95591.78;6212803;28;103643;-65
2022/12/21 10:21:54;;;;;;;11.33;10.33;;;;;;;22.31;27.62;95579.84;6207583;28;103129;-65
2022/12/21 10:25:02;;;;;;;10.80;9.80;;;;;;;22.29;27.85;95571.34;6213790;28;103039;-65
2022/12/21 10:28:18;;;;;;;10.77;9.77;;;;;;;22.24;27.90;95558.13;6213308;28;103259;-64
2022/12/21 10:31:27;;;;;;;11.57;10.47;;;;;;;22.28;27.44;95559.09;6201990;28;103136;-65
2022/12/21 10:34:35;;;;;;;10.27;9.37;;;;;;;22.29;27.63;95550.03;6213012;28;103181;-65
2022/12/21 10:37:39;;;;;;;10.83;9.93;;;;;;;22.30;27.85;95554.25;6212484;28;103047;-68
2022/12/21 10:40:45;;;;;;;9.80;9.00;;;;;;;22.31;27.93;95550.50;6213006;28;103495;-65
2022/12/21 10:43:50;;;;;;;10.47;9.47;;;;;;;22.29;28.07;95540.16;6203431;27;103783;-65
2022/12/21 10:46:54;;;;;;;10.27;9.37;;;;;;;22.31;27.75;95539.84;6212531;28;103112;-65
2022/12/21 10:50:05;;;;;;;10.67;9.67;;;;;;;22.31;28.02;95540.63;6213384;28;103250;-65
2022/12/21 10:53:19;;;;;;;10.30;9.40;;;;;;;22.24;27.80;95534.13;6207437;27;103125;-65
2022/12/21 10:56:22;;;;;;;8.90;8.13;;;;;;;22.32;28.09;95528.88;6209955;28;103030;-65
2022/12/21 10:59:28;;;;;;;9.90;9.07;;;;;;;22.32;27.69;95538.75;6212758;28;104091;-64
2022/12/21 11:02:36;;;;;;;9.90;9.10;;;;;;;22.33;28.01;95529.69;6212863;28;104356;-65
2022/12/21 11:05:43;;;;;;;9.50;8.60;;;;;;;22.33;28.13;95519.00;6201261;28;103470;-65
2022/12/21 11:08:48;;;;;;;9.50;8.67;;;;;;;22.33;27.81;95519.81;6212082;28;103125;-64
2022/12/21 11:11:54;;;;;;;10.10;9.20;;;;;;;22.32;27.97;95518.22;6212686;28;102857;-63
2022/12/21 11:14:57;;;;;;;8.70;8.00;;;;;;;22.34;28.10;95512.59;6212386;28;103427;-63
2022/12/21 11:18:01;;;;;;;9.13;8.43;;;;;;;22.32;28.12;95504.09;6201959;27;103248;-63
2022/12/21 11:21:13;;;;;;;9.10;8.30;;;;;;;22.31;27.78;95497.19;6212281;28;103386;-63
2022/12/21 11:24:19;;;;;;;9.30;8.40;;;;;;;22.25;27.92;95495.72;6213463;28;105704;-64
2022/12/21 11:27:26;;;;;;;9.97;9.07;;;;;;;22.26;27.94;95490.09;6206494;28;103107;-64
2022/12/21 11:30:34;;;;;;;9.20;8.50;;;;;;;22.24;28.17;95488.81;6211038;28;103637;-63
2022/12/21 11:33:44;;;;;;;9.57;8.77;;;;;;;22.20;28.07;95477.94;6211996;28;103115;-63
2022/12/21 11:36:57;;;;;;;8.20;7.50;;;;;;;22.19;27.85;95470.25;6211437;28;103262;-63
2022/12/21 11:40:17;;;;;;;9.07;8.27;;;;;;;22.11;28.40;95455.72;6201993;27;104074;-64
2022/12/21 11:43:21;;;;;;;9.17;8.30;;;;;;;22.15;28.10;95461.25;6211603;28;103310;-63
2022/12/21 11:46:43;;;;;;;8.47;7.77;;;;;;;22.10;28.55;95452.25;6211899;28;103097;-63
2022/12/21 11:50:25;;;;;;;8.63;7.83;;;;;;;22.16;28.58;95466.28;6207275;28;103408;-64
2022/12/21 11:53:57;;;;;;;8.40;7.70;;;;;;;22.17;28.53;95457.19;6210857;28;103124;-64
2022/12/21 11:57:11;;;;;;;7.83;7.13;;;;;;;22.15;28.53;95450.56;6211703;28;103262;-64
2022/12/21 12:00:19;;;;;;;8.63;7.83;;;;;;;22.14;28.61;95446.34;6210876;28;103172;-64
2022/12/21 12:03:55;;;;;;;7.90;7.30;;;;;;;22.15;28.69;95445.25;6201482;28;104072;-64
2022/12/21 12:07:26;;;;;;;8.23;7.53;;;;;;;22.11;28.57;95443.19;6211571;28;103029;-64
2022/12/21 12:10:47;;;;;;;8.20;7.50;;;;;;;22.09;28.54;95429.34;6209665;28;103100;-64
2022/12/21 12:14:08;;;;;;;7.87;7.17;;;;;;;22.09;28.80;95429.34;6200661;28;103341;-64
2022/12/21 12:17:22;;;;;;;7.80;7.20;;;;;;;22.08;28.76;95432.31;6210820;28;103971;-64
2022/12/21 12:20:46;;;;;;;7.40;6.80;;;;;;;22.05;28.38;95425.72;6210707;28;103242;-64
2022/12/21 12:24:00;;;;;;;7.90;7.20;;;;;;;22.01;28.45;95424.72;6206367;28;103073;-64
2022/12/21 12:27:17;;;;;;;8.00;7.30;;;;;;;21.99;28.52;95415.44;6206162;28;103979;-64
2022/12/21 12:30:23;;;;;;;7.80;7.10;;;;;;;21.95;28.96;95417.13;6210318;28;103290;-64
2022/12/21 12:33:37;;;;;;;6.93;6.30;;;;;;;21.84;28.86;95411.16;6211332;28;103105;-64
2022/12/21 12:36:50;;;;;;;6.80;6.30;;;;;;;21.86;28.86;95413.56;6200820;28;102885;-64
2022/12/21 12:40:04;;;;;;;7.70;7.00;;;;;;;21.83;28.84;95422.91;6211237;28;103161;-64
2022/12/21 12:43:17;;;;;;;7.10;6.50;;;;;;;21.80;28.75;95410.94;6210231;28;107842;-64
2022/12/21 12:46:29;;;;;;;7.20;6.60;;;;;;;21.67;29.02;95393.06;6205973;28;103141;-64
2022/12/21 12:49:46;;;;;;;7.47;6.97;;;;;;;21.76;28.75;95409.19;6204882;28;103230;-64
2022/12/21 12:53:02;;;;;;;7.27;6.67;;;;;;;21.74;29.01;95412.13;6210953;28;104054;-64
2022/12/21 12:56:18;;;;;;;7.30;6.60;;;;;;;21.72;29.06;95408.19;6210803;28;103485;-64
2022/12/21 12:59:31;;;;;;;7.43;6.80;;;;;;;21.70;29.29;95410.34;6199449;28;104787;-64
2022/12/21 13:02:45;;;;;;;7.07;6.23;;;;;;;21.68;29.25;95408.00;6209975;28;102879;-64
2022/12/21 13:05:58;;;;;;;7.10;6.40;;;;;;;21.59;29.14;95390.31;6211082;28;104664;-64
2022/12/21 13:09:10;;;;;;;7.20;6.60;;;;;;;21.55;29.00;95384.78;6207266;28;107742;-64
2022/12/21 13:12:20;;;;;;;7.20;6.60;;;;;;;21.57;29.33;95384.50;6204226;28;104459;-64
2022/12/21 13:15:35;;;;;;;7.33;6.73;;;;;;;21.59;28.99;95390.31;6209378;28;103119;-64
2022/12/21 13:18:45;;;;;;;7.10;6.50;;;;;;;21.62;29.19;95403.03;6211092;28;106340;-64
2022/12/21 13:21:52;;;;;;;7.47;6.87;;;;;;;21.56;29.76;95393.56;6198810;28;104143;-64
2022/12/21 13:25:01;;;;;;;6.83;6.23;;;;;;;21.62;29.04;95403.81;6210461;28;103170;-64
2022/12/21 13:28:08;;;;;;;6.90;6.30;;;;;;;21.58;29.25;95394.06;6209768;28;103729;-64
2022/12/21 13:31:15;;;;;;;6.93;6.33;;;;;;;21.58;29.24;95391.38;6213940;28;104369;-64
2022/12/21 13:34:28;;;;;;;7.03;6.43;;;;;;;21.58;28.93;95392.19;6204416;27;103392;-64
2022/12/21 13:37:31;;;;;;;6.80;6.20;;;;;;;21.58;29.35;95391.38;6214466;28;103324;-64
2022/12/21 13:40:40;;;;;;;6.97;6.37;;;;;;;21.58;29.02;95386.84;6214059;28;103235;-64
2022/12/21 13:43:50;;;;;;;6.97;6.37;;;;;;;21.55;29.19;95392.78;6206169;28;103308;-64
2022/12/21 13:47:16;;;;;;;7.33;6.73;;;;;;;21.57;29.11;95401.25;6213563;28;103651;-64
2022/12/21 13:50:31;;;;;;;7.50;6.80;;;;;;;21.55;29.16;95392.78;6213545;28;103365;-64
2022/12/21 13:53:45;;;;;;;6.70;6.10;;;;;;;21.49;29.03;95384.06;6214060;28;104097;-63
2022/12/21 13:57:00;;;;;;;6.40;5.90;;;;;;;21.54;29.08;95390.41;6203972;28;103964;-64
2022/12/21 14:00:14;;;;;;;6.50;5.90;;;;;;;21.50;29.13;95387.50;6213490;28;104029;-64
2022/12/21 14:03:30;;;;;;;7.10;6.50;;;;;;;21.54;28.95;95395.72;6213439;28;103954;-64
2022/12/21 14:07:06;;;;;;;7.33;6.70;;;;;;;21.52;29.04;95388.81;6202563;28;103025;-64
2022/12/21 14:10:20;;;;;;;7.13;6.53;;;;;;;21.41;28.97;95371.44;6212703;28;103311;-64
2022/12/21 14:14:14;;;;;;;6.80;6.20;;;;;;;21.50;28.82;95390.19;6212484;28;102996;-63
2022/12/21 14:17:22;;;;;;;6.60;6.10;;;;;;;21.51;29.47;95391.78;6209249;28;103839;-64
2022/12/21 14:20:31;;;;;;;6.40;5.80;;;;;;;21.40;29.31;95377.06;6206563;28;104382;-63
2022/12/21 14:23:37;;;;;;;6.70;6.10;;;;;;;21.44;29.22;95391.34;6213579;28;103329;-63
2022/12/21 14:26:45;;;;;;;6.23;5.60;;;;;;;21.48;29.37;95398.47;6213404;28;103405;-64
2022/12/21 14:29:48;;;;;;;6.87;6.27;;;;;;;21.47;29.18;95394.22;6202710;28;103691;-64
2022/12/21 14:32:56;;;;;;;6.80;6.20;;;;;;;21.40;28.96;95383.19;6212988;28;102931;-65
2022/12/21 14:36:39;;;;;;;5.67;5.27;;;;;;;21.45;29.08;95383.06;6212835;28;103267;-64
2022/12/21 14:40:17;;;;;;;6.20;5.70;;;;;;;21.46;29.65;95394.50;6213560;28;103366;-64
2022/12/21 14:43:20;;;;;;;6.40;5.90;;;;;;;21.46;29.14;95391.84;6205846;28;102995;-64